Terminal Aerodrome Forecast
Issued by NWS

Home | Current Version | Previous Version | Text Only | Print | Product List | Glossary On
Versions: 1 2 3 4 5 6 7 8 9 10 11 12 13 14 15 16
000
FTAK31 PAFA 191722
TAFABT
TAF
PABT 191722Z 1918/2018 25003KT 1 1/2SM BR FEW001
     FM192200 VRB02KT 2SM BR SCT002
     FM200600 03002KT 1/2SM FG SCT002 BKN050=

USA.gov is the U.S. government's official web portal to all federal, state and local government web resources and services.